sensor_id;sensor_type;location;lat;lon;timestamp;pressure;altitude;pressure_sealevel;temperature;humidity
4326;BME280;58429;49.826;10.880;2023-04-23T00:00:19;97968;;;15.37;64.09
4326;BME280;58429;49.826;10.880;2023-04-23T00:01:18;97974;;;15.34;64.15
4326;BME280;58429;49.826;10.880;2023-04-23T00:02:19;97968;;;15.34;64.35
4326;BME280;58429;49.826;10.880;2023-04-23T00:03:19;97972;;;15.32;64.13
4326;BME280;58429;49.826;10.880;2023-04-23T00:04:19;97975;;;15.31;64.12
4326;BME280;58429;49.826;10.880;2023-04-23T00:05:19;97973;;;15.32;64.63
4326;BME280;58429;49.826;10.880;2023-04-23T00:06:19;97957;;;15.27;64.76
4326;BME280;58429;49.826;10.880;2023-04-23T00:07:19;97961;;;15.27;64.12
4326;BME280;58429;49.826;10.880;2023-04-23T00:08:19;97959;;;15.28;64.42
4326;BME280;58429;49.826;10.880;2023-04-23T00:09:19;97959;;;15.24;64.75
4326;BME280;58429;49.826;10.880;2023-04-23T00:10:19;97959;;;15.21;64.67
4326;BME280;58429;49.826;10.880;2023-04-23T00:11:19;97962;;;15.18;65.12
4326;BME280;58429;49.826;10.880;2023-04-23T00:12:19;97956;;;15.16;64.76
4326;BME280;58429;49.826;10.880;2023-04-23T00:13:19;97953;;;15.17;64.87
4326;BME280;58429;49.826;10.880;2023-04-23T00:14:19;97955;;;15.13;65.25
4326;BME280;58429;49.826;10.880;2023-04-23T00:15:19;97955;;;15.15;65.06
4326;BME280;58429;49.826;10.880;2023-04-23T00:16:19;97960;;;15.16;64.67
4326;BME280;58429;49.826;10.880;2023-04-23T00:17:19;97955;;;15.15;64.97
4326;BME280;58429;49.826;10.880;2023-04-23T00:18:19;97961;;;15.11;65.08
4326;BME280;58429;49.826;10.880;2023-04-23T00:19:19;97956;;;15.12;65.21
4326;BME280;58429;49.826;10.880;2023-04-23T00:20:19;97952;;;15.09;65.21
4326;BME280;58429;49.826;10.880;2023-04-23T00:21:19;97954;;;15.06;65.74
4326;BME280;58429;49.826;10.880;2023-04-23T00:22:19;97960;;;15.06;65.53
4326;BME280;58429;49.826;10.880;2023-04-23T00:23:19;97959;;;15.03;65.6
4326;BME280;58429;49.826;10.880;2023-04-23T00:24:19;97940;;;15.01;65.11
4326;BME280;58429;49.826;10.880;2023-04-23T00:25:19;97945;;;14.99;65.08
4326;BME280;58429;49.826;10.880;2023-04-23T00:26:19;97942;;;15;64.96
4326;BME280;58429;49.826;10.880;2023-04-23T00:27:19;97949;;;15.04;65.17
4326;BME280;58429;49.826;10.880;2023-04-23T00:28:19;97942;;;15.01;65.31
4326;BME280;58429;49.826;10.880;2023-04-23T00:29:19;97940;;;15.02;65.21
4326;BME280;58429;49.826;10.880;2023-04-23T00:30:19;97946;;;15.03;64.9
4326;BME280;58429;49.826;10.880;2023-04-23T00:31:19;97951;;;15.08;64.92
4326;BME280;58429;49.826;10.880;2023-04-23T00:32:19;97950;;;15.03;65.35
4326;BME280;58429;49.826;10.880;2023-04-23T00:33:19;97949;;;14.99;65.44
4326;BME280;58429;49.826;10.880;2023-04-23T00:34:19;97943;;;15;65.19
4326;BME280;58429;49.826;10.880;2023-04-23T00:35:19;97940;;;14.97;65.25
4326;BME280;58429;49.826;10.880;2023-04-23T00:36:19;97940;;;14.95;65.01
4326;BME280;58429;49.826;10.880;2023-04-23T00:37:19;97935;;;14.99;65.17
4326;BME280;58429;49.826;10.880;2023-04-23T00:38:19;97936;;;14.98;65.06
4326;BME280;58429;49.826;10.880;2023-04-23T00:39:19;97941;;;14.97;65.23
4326;BME280;58429;49.826;10.880;2023-04-23T00:40:19;97947;;;14.96;65.1
4326;BME280;58429;49.826;10.880;2023-04-23T00:41:19;97946;;;14.97;64.96
4326;BME280;58429;49.826;10.880;2023-04-23T00:42:19;97941;;;14.97;65.19
4326;BME280;58429;49.826;10.880;2023-04-23T00:43:19;97942;;;14.97;65.53
4326;BME280;58429;49.826;10.880;2023-04-23T00:44:19;97941;;;14.94;65.14
4326;BME280;58429;49.826;10.880;2023-04-23T00:45:19;97942;;;14.91;65.03
4326;BME280;58429;49.826;10.880;2023-04-23T00:46:19;97936;;;14.92;65.06
4326;BME280;58429;49.826;10.880;2023-04-23T00:47:19;97935;;;14.95;65.12
4326;BME280;58429;49.826;10.880;2023-04-23T00:48:19;97935;;;14.95;65.22
4326;BME280;58429;49.826;10.880;2023-04-23T00:49:19;97936;;;15.01;65.01
4326;BME280;58429;49.826;10.880;2023-04-23T00:50:19;97945;;;14.94;65.37
4326;BME280;58429;49.826;10.880;2023-04-23T00:51:20;97944;;;14.94;64.94
4326;BME280;58429;49.826;10.880;2023-04-23T00:52:19;97938;;;14.95;65.06
4326;BME280;58429;49.826;10.880;2023-04-23T00:53:19;97940;;;14.93;64.95
4326;BME280;58429;49.826;10.880;2023-04-23T00:54:19;97937;;;14.91;64.93
4326;BME280;58429;49.826;10.880;2023-04-23T00:55:19;97931;;;14.94;64.88
4326;BME280;58429;49.826;10.880;2023-04-23T00:56:19;97931;;;14.98;65.08
4326;BME280;58429;49.826;10.880;2023-04-23T00:57:19;97927;;;14.92;65
4326;BME280;58429;49.826;10.880;2023-04-23T00:58:19;97931;;;14.94;65.01
4326;BME280;58429;49.826;10.880;2023-04-23T00:59:19;97931;;;14.95;64.97
4326;BME280;58429;49.826;10.880;2023-04-23T01:00:19;97936;;;14.93;65.02
4326;BME280;58429;49.826;10.880;2023-04-23T01:01:19;97937;;;14.95;65.22
4326;BME280;58429;49.826;10.880;2023-04-23T01:02:19;97933;;;14.94;65.08
4326;BME280;58429;49.826;10.880;2023-04-23T01:03:19;97937;;;14.96;65.35
4326;BME280;58429;49.826;10.880;2023-04-23T01:04:19;97926;;;14.93;65.29
4326;BME280;58429;49.826;10.880;2023-04-23T01:05:19;97931;;;14.91;65.48
4326;BME280;58429;49.826;10.880;2023-04-23T01:06:19;97931;;;14.88;65.87
4326;BME280;58429;49.826;10.880;2023-04-23T01:07:19;97940;;;14.84;66.09
4326;BME280;58429;49.826;10.880;2023-04-23T01:08:19;97951;;;14.83;66.31
4326;BME280;58429;49.826;10.880;2023-04-23T01:09:19;97950;;;14.8;66.46
4326;BME280;58429;49.826;10.880;2023-04-23T01:10:19;97950;;;14.77;66.16
4326;BME280;58429;49.826;10.880;2023-04-23T01:11:19;97952;;;14.77;66.39
4326;BME280;58429;49.826;10.880;2023-04-23T01:12:19;97951;;;14.68;66.83
4326;BME280;58429;49.826;10.880;2023-04-23T01:13:19;97954;;;14.64;66.73
4326;BME280;58429;49.826;10.880;2023-04-23T01:14:19;97955;;;14.62;67.13
4326;BME280;58429;49.826;10.880;2023-04-23T01:15:19;97946;;;14.6;66.56
4326;BME280;58429;49.826;10.880;2023-04-23T01:16:19;97954;;;14.59;66.45
4326;BME280;58429;49.826;10.880;2023-04-23T01:17:19;97955;;;14.57;67.4
4326;BME280;58429;49.826;10.880;2023-04-23T01:18:19;97949;;;14.48;67.38
4326;BME280;58429;49.826;10.880;2023-04-23T01:19:19;97951;;;14.44;67.26
4326;BME280;58429;49.826;10.880;2023-04-23T01:20:19;97956;;;14.46;67.2
4326;BME280;58429;49.826;10.880;2023-04-23T01:21:19;97950;;;14.46;67.18
4326;BME280;58429;49.826;10.880;2023-04-23T01:22:19;97952;;;14.41;67.36
4326;BME280;58429;49.826;10.880;2023-04-23T01:23:19;97946;;;14.4;67.71
4326;BME280;58429;49.826;10.880;2023-04-23T01:24:19;97951;;;14.39;67.85
4326;BME280;58429;49.826;10.880;2023-04-23T01:25:19;97953;;;14.36;67.6
4326;BME280;58429;49.826;10.880;2023-04-23T01:26:19;97952;;;14.37;67.16
4326;BME280;58429;49.826;10.880;2023-04-23T01:27:19;97957;;;14.4;67.58
4326;BME280;58429;49.826;10.880;2023-04-23T01:28:19;97953;;;14.37;67.26
4326;BME280;58429;49.826;10.880;2023-04-23T01:29:19;97970;;;14.36;67.56
4326;BME280;58429;49.826;10.880;2023-04-23T01:30:19;97957;;;14.35;67.88
4326;BME280;58429;49.826;10.880;2023-04-23T01:31:19;97966;;;14.35;67.99
4326;BME280;58429;49.826;10.880;2023-04-23T01:32:19;97968;;;14.32;68.15
4326;BME280;58429;49.826;10.880;2023-04-23T01:33:19;97969;;;14.32;67.86
4326;BME280;58429;49.826;10.880;2023-04-23T01:34:19;97971;;;14.29;68.14
4326;BME280;58429;49.826;10.880;2023-04-23T01:35:19;97967;;;14.31;67.93
4326;BME280;58429;49.826;10.880;2023-04-23T01:36:19;97974;;;14.3;68.25
4326;BME280;58429;49.826;10.880;2023-04-23T01:37:19;97970;;;14.25;68.27
4326;BME280;58429;49.826;10.880;2023-04-23T01:38:19;97965;;;14.25;68.68
4326;BME280;58429;49.826;10.880;2023-04-23T01:39:19;97959;;;14.24;68.5
4326;BME280;58429;49.826;10.880;2023-04-23T01:40:19;97955;;;14.21;68.38
4326;BME280;58429;49.826;10.880;2023-04-23T01:41:19;97959;;;14.2;68.51
4326;BME280;58429;49.826;10.880;2023-04-23T01:42:19;97954;;;14.24;68.2
4326;BME280;58429;49.826;10.880;2023-04-23T01:43:19;97958;;;14.23;68.22
4326;BME280;58429;49.826;10.880;2023-04-23T01:44:19;97952;;;14.22;68.65
4326;BME280;58429;49.826;10.880;2023-04-23T01:45:19;97937;;;14.21;68.53
4326;BME280;58429;49.826;10.880;2023-04-23T01:46:19;97945;;;14.2;68.59
4326;BME280;58429;49.826;10.880;2023-04-23T01:47:19;97946;;;14.18;68.47
4326;BME280;58429;49.826;10.880;2023-04-23T01:48:19;97947;;;14.18;68.25
4326;BME280;58429;49.826;10.880;2023-04-23T01:49:19;97940;;;14.21;68.15
4326;BME280;58429;49.826;10.880;2023-04-23T01:50:19;97938;;;14.24;68.6
4326;BME280;58429;49.826;10.880;2023-04-23T01:51:19;97933;;;14.24;68.4
4326;BME280;58429;49.826;10.880;2023-04-23T01:52:19;97933;;;14.24;68.53
4326;BME280;58429;49.826;10.880;2023-04-23T01:53:19;97931;;;14.24;68.67
4326;BME280;58429;49.826;10.880;2023-04-23T01:54:19;97924;;;14.24;68.37
4326;BME280;58429;49.826;10.880;2023-04-23T01:55:19;97928;;;14.26;68.41
4326;BME280;58429;49.826;10.880;2023-04-23T01:56:19;97938;;;14.24;68.53
4326;BME280;58429;49.826;10.880;2023-04-23T01:57:19;97935;;;14.21;68.31
4326;BME280;58429;49.826;10.880;2023-04-23T01:58:19;97931;;;14.25;68.63
4326;BME280;58429;49.826;10.880;2023-04-23T01:59:19;97945;;;14.24;68.53
4326;BME280;58429;49.826;10.880;2023-04-23T02:00:19;97942;;;14.25;68.64
4326;BME280;58429;49.826;10.880;2023-04-23T02:01:19;97945;;;14.21;68.61
4326;BME280;58429;49.826;10.880;2023-04-23T02:02:19;97946;;;14.21;68.98
4326;BME280;58429;49.826;10.880;2023-04-23T02:03:19;97934;;;14.17;69.04
4326;BME280;58429;49.826;10.880;2023-04-23T02:04:19;97942;;;14.14;69.06
4326;BME280;58429;49.826;10.880;2023-04-23T02:05:20;97944;;;14.16;69.2
4326;BME280;58429;49.826;10.880;2023-04-23T02:06:19;97941;;;14.13;69.21
4326;BME280;58429;49.826;10.880;2023-04-23T02:07:19;97947;;;14.12;69.18
4326;BME280;58429;49.826;10.880;2023-04-23T02:08:19;97946;;;14.14;69.29
4326;BME280;58429;49.826;10.880;2023-04-23T02:09:19;97953;;;14.13;69.41
4326;BME280;58429;49.826;10.880;2023-04-23T02:10:19;97947;;;14.08;69.56
4326;BME280;58429;49.826;10.880;2023-04-23T02:11:19;97953;;;14.08;69.32
4326;BME280;58429;49.826;10.880;2023-04-23T02:12:19;97956;;;14.06;69.5
4326;BME280;58429;49.826;10.880;2023-04-23T02:13:19;97958;;;14.06;69.47
4326;BME280;58429;49.826;10.880;2023-04-23T02:14:19;97950;;;14.06;70
4326;BME280;58429;49.826;10.880;2023-04-23T02:15:19;97957;;;14.01;69.4
4326;BME280;58429;49.826;10.880;2023-04-23T02:16:19;97952;;;14.04;69.49
4326;BME280;58429;49.826;10.880;2023-04-23T02:17:20;97953;;;14.07;69.26
4326;BME280;58429;49.826;10.880;2023-04-23T02:18:19;97951;;;14.06;69.17
4326;BME280;58429;49.826;10.880;2023-04-23T02:19:19;97947;;;14.04;69.27
4326;BME280;58429;49.826;10.880;2023-04-23T02:20:19;97949;;;14.06;69.56
4326;BME280;58429;49.826;10.880;2023-04-23T02:21:19;97950;;;14.05;69.84
4326;BME280;58429;49.826;10.880;2023-04-23T02:22:19;97959;;;14;69.71
4326;BME280;58429;49.826;10.880;2023-04-23T02:23:19;97955;;;14.01;69.94
4326;BME280;58429;49.826;10.880;2023-04-23T02:24:19;97951;;;14;70.06
4326;BME280;58429;49.826;10.880;2023-04-23T02:25:19;97950;;;13.98;69.86
4326;BME280;58429;49.826;10.880;2023-04-23T02:26:19;97950;;;14.01;69.83
4326;BME280;58429;49.826;10.880;2023-04-23T02:27:19;97952;;;13.98;70.22
4326;BME280;58429;49.826;10.880;2023-04-23T02:28:19;97949;;;13.92;70.64
4326;BME280;58429;49.826;10.880;2023-04-23T02:29:19;97950;;;13.92;70.65
4326;BME280;58429;49.826;10.880;2023-04-23T02:30:19;97945;;;13.87;70.82
4326;BME280;58429;49.826;10.880;2023-04-23T02:31:19;97950;;;13.91;70.51
4326;BME280;58429;49.826;10.880;2023-04-23T02:32:19;97948;;;13.89;70.46
4326;BME280;58429;49.826;10.880;2023-04-23T02:33:19;97947;;;13.88;70.56
4326;BME280;58429;49.826;10.880;2023-04-23T02:34:19;97949;;;13.86;70.79
4326;BME280;58429;49.826;10.880;2023-04-23T02:35:19;97948;;;13.86;70.81
4326;BME280;58429;49.826;10.880;2023-04-23T02:36:19;97947;;;13.85;70.69
4326;BME280;58429;49.826;10.880;2023-04-23T02:37:19;97951;;;13.86;71.19
4326;BME280;58429;49.826;10.880;2023-04-23T02:38:19;97946;;;13.84;71.18
4326;BME280;58429;49.826;10.880;2023-04-23T02:39:19;97955;;;13.85;71.43
4326;BME280;58429;49.826;10.880;2023-04-23T02:40:19;97951;;;13.82;71.49
4326;BME280;58429;49.826;10.880;2023-04-23T02:41:19;97948;;;13.84;71.9
4326;BME280;58429;49.826;10.880;2023-04-23T02:42:19;97949;;;13.8;71.42
4326;BME280;58429;49.826;10.880;2023-04-23T02:43:19;97950;;;13.82;71.21
4326;BME280;58429;49.826;10.880;2023-04-23T02:44:19;97953;;;13.81;71.43
4326;BME280;58429;49.826;10.880;2023-04-23T02:45:19;97957;;;13.82;71.25
4326;BME280;58429;49.826;10.880;2023-04-23T02:46:19;97948;;;13.78;71.32
4326;BME280;58429;49.826;10.880;2023-04-23T02:47:19;97947;;;13.79;71.33
4326;BME280;58429;49.826;10.880;2023-04-23T02:48:19;97947;;;13.77;71.73
4326;BME280;58429;49.826;10.880;2023-04-23T02:49:19;97950;;;13.77;71.59
4326;BME280;58429;49.826;10.880;2023-04-23T02:50:19;97953;;;13.78;71.44
4326;BME280;58429;49.826;10.880;2023-04-23T02:51:19;97956;;;13.75;71.9
4326;BME280;58429;49.826;10.880;2023-04-23T02:52:19;97964;;;13.71;72.3
4326;BME280;58429;49.826;10.880;2023-04-23T02:53:19;97963;;;13.67;72.05
4326;BME280;58429;49.826;10.880;2023-04-23T02:54:19;97963;;;13.67;71.94
4326;BME280;58429;49.826;10.880;2023-04-23T02:55:19;97960;;;13.69;71.83
4326;BME280;58429;49.826;10.880;2023-04-23T02:56:19;97970;;;13.67;71.84
4326;BME280;58429;49.826;10.880;2023-04-23T02:57:19;97970;;;13.68;71.72
4326;BME280;58429;49.826;10.880;2023-04-23T02:58:19;97968;;;13.65;71.64
4326;BME280;58429;49.826;10.880;2023-04-23T02:59:19;97967;;;13.68;71.71
4326;BME280;58429;49.826;10.880;2023-04-23T03:00:19;97976;;;13.66;71.57
4326;BME280;58429;49.826;10.880;2023-04-23T03:01:19;97969;;;13.63;71.55
4326;BME280;58429;49.826;10.880;2023-04-23T03:02:19;97968;;;13.6;71.8
4326;BME280;58429;49.826;10.880;2023-04-23T03:03:19;97978;;;13.65;72.21
4326;BME280;58429;49.826;10.880;2023-04-23T03:04:19;97969;;;13.63;71.99
4326;BME280;58429;49.826;10.880;2023-04-23T03:05:19;97975;;;13.59;72.33
4326;BME280;58429;49.826;10.880;2023-04-23T03:06:19;97981;;;13.61;72.39
4326;BME280;58429;49.826;10.880;2023-04-23T03:07:19;97978;;;13.59;71.92
4326;BME280;58429;49.826;10.880;2023-04-23T03:08:19;97977;;;13.6;71.81
4326;BME280;58429;49.826;10.880;2023-04-23T03:09:19;97976;;;13.57;72.44
4326;BME280;58429;49.826;10.880;2023-04-23T03:10:19;97989;;;13.54;72.79
4326;BME280;58429;49.826;10.880;2023-04-23T03:11:19;97988;;;13.55;72.54
4326;BME280;58429;49.826;10.880;2023-04-23T03:12:19;97986;;;13.56;72.84
4326;BME280;58429;49.826;10.880;2023-04-23T03:13:19;97987;;;13.51;72.62
4326;BME280;58429;49.826;10.880;2023-04-23T03:14:19;97987;;;13.52;73.04
4326;BME280;58429;49.826;10.880;2023-04-23T03:15:19;97987;;;13.52;73.11
4326;BME280;58429;49.826;10.880;2023-04-23T03:16:19;97995;;;13.51;72.96
4326;BME280;58429;49.826;10.880;2023-04-23T03:17:19;97988;;;13.55;73.24
4326;BME280;58429;49.826;10.880;2023-04-23T03:18:19;97991;;;13.49;73.16
4326;BME280;58429;49.826;10.880;2023-04-23T03:19:19;97991;;;13.44;73.25
4326;BME280;58429;49.826;10.880;2023-04-23T03:20:19;97997;;;13.44;73.48
4326;BME280;58429;49.826;10.880;2023-04-23T03:21:19;97986;;;13.46;73.46
4326;BME280;58429;49.826;10.880;2023-04-23T03:22:19;97999;;;13.44;73.56
4326;BME280;58429;49.826;10.880;2023-04-23T03:23:19;97993;;;13.46;74.07
4326;BME280;58429;49.826;10.880;2023-04-23T03:24:19;97990;;;13.42;74.08
4326;BME280;58429;49.826;10.880;2023-04-23T03:25:19;97992;;;13.37;74.37
4326;BME280;58429;49.826;10.880;2023-04-23T03:26:19;97989;;;13.38;74.3
4326;BME280;58429;49.826;10.880;2023-04-23T03:27:19;97991;;;13.37;74.41
4326;BME280;58429;49.826;10.880;2023-04-23T03:28:19;97990;;;13.37;74.14
4326;BME280;58429;49.826;10.880;2023-04-23T03:29:19;97982;;;13.36;74.42
4326;BME280;58429;49.826;10.880;2023-04-23T03:30:25;97984;;;13.35;74.8
4326;BME280;58429;49.826;10.880;2023-04-23T03:31:19;97995;;;13.33;75.15
4326;BME280;58429;49.826;10.880;2023-04-23T03:32:19;97991;;;13.35;75.11
4326;BME280;58429;49.826;10.880;2023-04-23T03:33:19;97994;;;13.34;75.41
4326;BME280;58429;49.826;10.880;2023-04-23T03:34:19;97987;;;13.34;75.59
4326;BME280;58429;49.826;10.880;2023-04-23T03:35:19;97986;;;13.27;75.78
4326;BME280;58429;49.826;10.880;2023-04-23T03:36:19;97988;;;13.31;75.73
4326;BME280;58429;49.826;10.880;2023-04-23T03:37:19;97990;;;13.28;75.95
4326;BME280;58429;49.826;10.880;2023-04-23T03:38:19;97990;;;13.27;76.44
4326;BME280;58429;49.826;10.880;2023-04-23T03:39:19;97992;;;13.24;76.51
4326;BME280;58429;49.826;10.880;2023-04-23T03:40:20;97988;;;13.2;75.96
4326;BME280;58429;49.826;10.880;2023-04-23T03:41:19;97985;;;13.25;76.33
4326;BME280;58429;49.826;10.880;2023-04-23T03:42:19;97980;;;13.23;76.5
4326;BME280;58429;49.826;10.880;2023-04-23T03:43:19;97984;;;13.1;76.67
4326;BME280;58429;49.826;10.880;2023-04-23T03:44:19;97989;;;13.2;76.7
4326;BME280;58429;49.826;10.880;2023-04-23T03:45:20;97985;;;13.15;76.64
4326;BME280;58429;49.826;10.880;2023-04-23T03:46:19;97997;;;13.11;76.57
4326;BME280;58429;49.826;10.880;2023-04-23T03:47:19;97995;;;13.1;77.01
4326;BME280;58429;49.826;10.880;2023-04-23T03:48:19;97990;;;13.09;77.13
4326;BME280;58429;49.826;10.880;2023-04-23T03:49:19;97988;;;13.08;77.38
4326;BME280;58429;49.826;10.880;2023-04-23T03:50:19;97993;;;13.05;77.31
4326;BME280;58429;49.826;10.880;2023-04-23T03:51:19;97990;;;13;77.56
4326;BME280;58429;49.826;10.880;2023-04-23T03:52:19;97990;;;13.02;77.73
4326;BME280;58429;49.826;10.880;2023-04-23T03:53:19;97993;;;12.98;77.72
4326;BME280;58429;49.826;10.880;2023-04-23T03:54:19;97994;;;12.97;77.67
4326;BME280;58429;49.826;10.880;2023-04-23T03:55:19;97996;;;12.95;77.84
4326;BME280;58429;49.826;10.880;2023-04-23T03:56:19;97991;;;12.93;77.86
4326;BME280;58429;49.826;10.880;2023-04-23T03:57:19;97996;;;12.97;77.62
4326;BME280;58429;49.826;10.880;2023-04-23T03:58:19;97991;;;12.96;77.7
4326;BME280;58429;49.826;10.880;2023-04-23T03:59:19;97992;;;12.94;77.82
4326;BME280;58429;49.826;10.880;2023-04-23T04:00:19;98000;;;12.95;77.67
4326;BME280;58429;49.826;10.880;2023-04-23T04:01:19;97995;;;12.99;77.68
4326;BME280;58429;49.826;10.880;2023-04-23T04:02:19;97994;;;12.94;77.56
4326;BME280;58429;49.826;10.880;2023-04-23T04:03:19;97996;;;12.95;77.99
4326;BME280;58429;49.826;10.880;2023-04-23T04:04:19;97995;;;12.91;77.93
4326;BME280;58429;49.826;10.880;2023-04-23T04:05:20;97997;;;12.88;78.34
4326;BME280;58429;49.826;10.880;2023-04-23T04:06:19;98000;;;12.87;78.4
4326;BME280;58429;49.826;10.880;2023-04-23T04:07:19;98002;;;12.88;78.31
4326;BME280;58429;49.826;10.880;2023-04-23T04:08:19;98002;;;12.88;78.39
4326;BME280;58429;49.826;10.880;2023-04-23T04:09:19;98006;;;12.85;78.53
4326;BME280;58429;49.826;10.880;2023-04-23T04:10:19;98007;;;12.85;78.47
4326;BME280;58429;49.826;10.880;2023-04-23T04:11:19;98009;;;12.85;78.66
4326;BME280;58429;49.826;10.880;2023-04-23T04:12:19;98007;;;12.84;78.66
4326;BME280;58429;49.826;10.880;2023-04-23T04:13:19;98007;;;12.85;78.58
4326;BME280;58429;49.826;10.880;2023-04-23T04:14:20;98010;;;12.83;78.67
4326;BME280;58429;49.826;10.880;2023-04-23T04:15:19;98012;;;12.85;78.71
4326;BME280;58429;49.826;10.880;2023-04-23T04:16:19;98002;;;12.83;78.51
4326;BME280;58429;49.826;10.880;2023-04-23T04:17:19;98008;;;12.82;78.66
4326;BME280;58429;49.826;10.880;2023-04-23T04:18:20;98005;;;12.83;78.56
4326;BME280;58429;49.826;10.880;2023-04-23T04:19:19;97998;;;12.83;78.63
4326;BME280;58429;49.826;10.880;2023-04-23T04:20:19;97995;;;12.84;78.74
4326;BME280;58429;49.826;10.880;2023-04-23T04:21:19;97999;;;12.83;78.72
4326;BME280;58429;49.826;10.880;2023-04-23T04:22:19;98002;;;12.83;78.68
4326;BME280;58429;49.826;10.880;2023-04-23T04:23:19;98002;;;12.83;78.86
4326;BME280;58429;49.826;10.880;2023-04-23T04:24:19;97999;;;12.8;78.87
4326;BME280;58429;49.826;10.880;2023-04-23T04:25:19;97996;;;12.81;78.97
4326;BME280;58429;49.826;10.880;2023-04-23T04:26:19;98005;;;12.81;79.02
4326;BME280;58429;49.826;10.880;2023-04-23T04:27:19;97999;;;12.81;78.96
4326;BME280;58429;49.826;10.880;2023-04-23T04:28:19;97999;;;12.83;79.04
4326;BME280;58429;49.826;10.880;2023-04-23T04:29:19;97999;;;12.81;78.72
4326;BME280;58429;49.826;10.880;2023-04-23T04:30:19;97995;;;12.83;78.72
4326;BME280;58429;49.826;10.880;2023-04-23T04:31:19;98001;;;12.81;79.11
4326;BME280;58429;49.826;10.880;2023-04-23T04:32:19;98003;;;12.81;79
4326;BME280;58429;49.826;10.880;2023-04-23T04:33:19;98015;;;12.82;79.2
4326;BME280;58429;49.826;10.880;2023-04-23T04:34:20;98008;;;12.79;79.17
4326;BME280;58429;49.826;10.880;2023-04-23T04:35:19;98014;;;12.82;78.98
4326;BME280;58429;49.826;10.880;2023-04-23T04:36:19;98003;;;12.82;79.22
4326;BME280;58429;49.826;10.880;2023-04-23T04:37:19;98012;;;12.82;79.03
4326;BME280;58429;49.826;10.880;2023-04-23T04:38:19;98012;;;12.81;78.93
4326;BME280;58429;49.826;10.880;2023-04-23T04:39:19;98012;;;12.81;79.29
4326;BME280;58429;49.826;10.880;2023-04-23T04:40:20;98002;;;12.79;79.18
4326;BME280;58429;49.826;10.880;2023-04-23T04:41:19;98006;;;12.76;79.18
4326;BME280;58429;49.826;10.880;2023-04-23T04:42:19;98012;;;12.78;79.16
4326;BME280;58429;49.826;10.880;2023-04-23T04:43:20;98018;;;12.78;79.03
4326;BME280;58429;49.826;10.880;2023-04-23T04:44:20;98011;;;12.79;79.1
4326;BME280;58429;49.826;10.880;2023-04-23T04:45:19;98011;;;12.81;78.89
4326;BME280;58429;49.826;10.880;2023-04-23T04:46:19;98017;;;12.78;79.17
4326;BME280;58429;49.826;10.880;2023-04-23T04:47:19;98014;;;12.8;78.98
4326;BME280;58429;49.826;10.880;2023-04-23T04:48:20;98024;;;12.79;78.92
4326;BME280;58429;49.826;10.880;2023-04-23T04:49:19;98010;;;12.8;79.18
4326;BME280;58429;49.826;10.880;2023-04-23T04:50:20;98019;;;12.77;79.24
4326;BME280;58429;49.826;10.880;2023-04-23T04:51:20;98014;;;12.75;79.26
4326;BME280;58429;49.826;10.880;2023-04-23T04:52:20;98015;;;12.77;79.26
4326;BME280;58429;49.826;10.880;2023-04-23T04:53:19;98013;;;12.82;79.33
4326;BME280;58429;49.826;10.880;2023-04-23T04:54:19;98006;;;12.79;79.03
4326;BME280;58429;49.826;10.880;2023-04-23T04:55:19;98006;;;12.8;79.19
4326;BME280;58429;49.826;10.880;2023-04-23T04:56:19;98020;;;12.77;79.35
4326;BME280;58429;49.826;10.880;2023-04-23T04:57:20;98018;;;12.77;79.39
4326;BME280;58429;49.826;10.880;2023-04-23T04:58:20;98011;;;12.77;79.31
4326;BME280;58429;49.826;10.880;2023-04-23T04:59:19;98015;;;12.77;79.32
4326;BME280;58429;49.826;10.880;2023-04-23T05:00:20;98019;;;12.78;79.22
4326;BME280;58429;49.826;10.880;2023-04-23T05:01:20;98016;;;12.78;79.07
4326;BME280;58429;49.826;10.880;2023-04-23T05:02:19;98023;;;12.8;79.03
4326;BME280;58429;49.826;10.880;2023-04-23T05:03:20;98025;;;12.8;78.93
4326;BME280;58429;49.826;10.880;2023-04-23T05:04:19;98022;;;12.76;79.06
4326;BME280;58429;49.826;10.880;2023-04-23T05:05:20;98029;;;12.82;78.95
4326;BME280;58429;49.826;10.880;2023-04-23T05:06:20;98032;;;12.82;79.02
4326;BME280;58429;49.826;10.880;2023-04-23T05:07:20;98024;;;12.84;78.98
4326;BME280;58429;49.826;10.880;2023-04-23T05:08:20;98027;;;12.82;78.85
4326;BME280;58429;49.826;10.880;2023-04-23T05:09:19;98031;;;12.81;78.96
4326;BME280;58429;49.826;10.880;2023-04-23T05:10:20;98033;;;12.83;78.95
4326;BME280;58429;49.826;10.880;2023-04-23T05:11:20;98029;;;12.81;78.88
4326;BME280;58429;49.826;10.880;2023-04-23T05:12:20;98033;;;12.83;79.02
4326;BME280;58429;49.826;10.880;2023-04-23T05:13:20;98030;;;12.82;79.12
4326;BME280;58429;49.826;10.880;2023-04-23T05:14:20;98029;;;12.81;78.88
4326;BME280;58429;49.826;10.880;2023-04-23T05:15:20;98024;;;12.84;78.98
4326;BME280;58429;49.826;10.880;2023-04-23T05:16:20;98026;;;12.8;78.97
4326;BME280;58429;49.826;10.880;2023-04-23T05:17:20;98028;;;12.83;79.06
4326;BME280;58429;49.826;10.880;2023-04-23T05:18:20;98032;;;12.83;78.98
4326;BME280;58429;49.826;10.880;2023-04-23T05:19:20;98025;;;12.84;78.97
4326;BME280;58429;49.826;10.880;2023-04-23T05:20:20;98028;;;12.86;78.95
4326;BME280;58429;49.826;10.880;2023-04-23T05:21:20;98031;;;12.87;78.72
4326;BME280;58429;49.826;10.880;2023-04-23T05:22:20;98032;;;12.85;78.89
4326;BME280;58429;49.826;10.880;2023-04-23T05:23:20;98034;;;12.85;78.9
4326;BME280;58429;49.826;10.880;2023-04-23T05:24:20;98037;;;12.86;78.73
4326;BME280;58429;49.826;10.880;2023-04-23T05:25:20;98036;;;12.85;78.96
4326;BME280;58429;49.826;10.880;2023-04-23T05:26:20;98035;;;12.88;78.66
4326;BME280;58429;49.826;10.880;2023-04-23T05:27:20;98034;;;12.87;78.98
4326;BME280;58429;49.826;10.880;2023-04-23T05:28:20;98033;;;12.88;78.98
4326;BME280;58429;49.826;10.880;2023-04-23T05:29:20;98029;;;12.88;79
4326;BME280;58429;49.826;10.880;2023-04-23T05:30:20;98044;;;12.89;78.75
4326;BME280;58429;49.826;10.880;2023-04-23T05:31:20;98039;;;12.88;78.85